sensor_id;sensor_type;location;lat;lon;timestamp;P1;durP1;ratioP1;P2;durP2;ratioP2
31728;SDS011;18309;43.658;1.312;2023-07-22T00:02:12;6.60;;;3.45;;
31728;SDS011;18309;43.658;1.312;2023-07-22T00:04:38;8.45;;;2.95;;
31728;SDS011;18309;43.658;1.312;2023-07-22T00:07:03;5.55;;;3.55;;
31728;SDS011;18309;43.658;1.312;2023-07-22T00:09:32;6.72;;;3.60;;
31728;SDS011;18309;43.658;1.312;2023-07-22T00:11:58;8.90;;;3.47;;
31728;SDS011;18309;43.658;1.312;2023-07-22T00:14:24;8.20;;;3.42;;
31728;SDS011;18309;43.658;1.312;2023-07-22T00:16:50;9.63;;;3.83;;
31728;SDS011;18309;43.658;1.312;2023-07-22T00:19:16;5.43;;;3.38;;
31728;SDS011;18309;43.658;1.312;2023-07-22T00:21:41;4.90;;;3.05;;
31728;SDS011;18309;43.658;1.312;2023-07-22T00:24:07;8.25;;;3.20;;
31728;SDS011;18309;43.658;1.312;2023-07-22T00:26:33;7.65;;;3.55;;
31728;SDS011;18309;43.658;1.312;2023-07-22T00:28:59;9.20;;;3.72;;
31728;SDS011;18309;43.658;1.312;2023-07-22T00:31:24;6.78;;;3.40;;
31728;SDS011;18309;43.658;1.312;2023-07-22T00:33:51;6.30;;;2.90;;
31728;SDS011;18309;43.658;1.312;2023-07-22T00:36:17;7.05;;;4.03;;
31728;SDS011;18309;43.658;1.312;2023-07-22T00:38:42;6.35;;;3.30;;
31728;SDS011;18309;43.658;1.312;2023-07-22T00:41:08;11.88;;;3.92;;
31728;SDS011;18309;43.658;1.312;2023-07-22T00:43:34;7.93;;;3.58;;
31728;SDS011;18309;43.658;1.312;2023-07-22T00:45:59;7.28;;;3.30;;
31728;SDS011;18309;43.658;1.312;2023-07-22T00:48:25;7.60;;;3.28;;
31728;SDS011;18309;43.658;1.312;2023-07-22T00:50:52;9.07;;;3.00;;
31728;SDS011;18309;43.658;1.312;2023-07-22T00:53:18;6.57;;;3.10;;
31728;SDS011;18309;43.658;1.312;2023-07-22T00:55:44;15.70;;;3.30;;
31728;SDS011;18309;43.658;1.312;2023-07-22T00:58:10;9.13;;;3.47;;
31728;SDS011;18309;43.658;1.312;2023-07-22T01:00:36;8.68;;;3.90;;
31728;SDS011;18309;43.658;1.312;2023-07-22T01:03:02;8.10;;;3.08;;
31728;SDS011;18309;43.658;1.312;2023-07-22T01:05:28;6.13;;;2.78;;
31728;SDS011;18309;43.658;1.312;2023-07-22T01:07:56;8.07;;;2.95;;
31728;SDS011;18309;43.658;1.312;2023-07-22T01:10:22;7.13;;;3.22;;
31728;SDS011;18309;43.658;1.312;2023-07-22T01:12:47;6.18;;;3.10;;
31728;SDS011;18309;43.658;1.312;2023-07-22T01:15:13;7.80;;;3.45;;
31728;SDS011;18309;43.658;1.312;2023-07-22T01:17:39;6.97;;;3.58;;
31728;SDS011;18309;43.658;1.312;2023-07-22T01:20:06;5.57;;;3.47;;
31728;SDS011;18309;43.658;1.312;2023-07-22T01:22:33;9.05;;;2.95;;
31728;SDS011;18309;43.658;1.312;2023-07-22T01:24:59;7.53;;;3.30;;
31728;SDS011;18309;43.658;1.312;2023-07-22T01:27:26;5.57;;;3.28;;
31728;SDS011;18309;43.658;1.312;2023-07-22T01:29:53;7.22;;;3.38;;
31728;SDS011;18309;43.658;1.312;2023-07-22T01:32:18;8.15;;;2.97;;
31728;SDS011;18309;43.658;1.312;2023-07-22T01:34:45;5.25;;;3.47;;
31728;SDS011;18309;43.658;1.312;2023-07-22T01:37:11;5.32;;;3.17;;
31728;SDS011;18309;43.658;1.312;2023-07-22T01:39:37;6.18;;;2.95;;
31728;SDS011;18309;43.658;1.312;2023-07-22T01:42:03;7.00;;;3.25;;
31728;SDS011;18309;43.658;1.312;2023-07-22T01:44:29;10.00;;;3.22;;
31728;SDS011;18309;43.658;1.312;2023-07-22T01:46:55;4.93;;;3.25;;
31728;SDS011;18309;43.658;1.312;2023-07-22T01:49:22;4.95;;;3.03;;
31728;SDS011;18309;43.658;1.312;2023-07-22T01:51:49;10.15;;;2.97;;
31728;SDS011;18309;43.658;1.312;2023-07-22T01:54:15;6.60;;;3.05;;
31728;SDS011;18309;43.658;1.312;2023-07-22T01:56:40;6.65;;;3.22;;
31728;SDS011;18309;43.658;1.312;2023-07-22T01:59:06;4.25;;;3.13;;
31728;SDS011;18309;43.658;1.312;2023-07-22T02:01:32;5.82;;;3.08;;
31728;SDS011;18309;43.658;1.312;2023-07-22T02:03:58;4.85;;;2.75;;
31728;SDS011;18309;43.658;1.312;2023-07-22T02:06:23;5.97;;;3.17;;
31728;SDS011;18309;43.658;1.312;2023-07-22T02:08:49;4.32;;;2.92;;
31728;SDS011;18309;43.658;1.312;2023-07-22T02:11:15;8.52;;;3.35;;
31728;SDS011;18309;43.658;1.312;2023-07-22T02:13:42;6.18;;;3.10;;
31728;SDS011;18309;43.658;1.312;2023-07-22T02:16:08;6.70;;;3.20;;
31728;SDS011;18309;43.658;1.312;2023-07-22T02:18:37;7.75;;;3.67;;
31728;SDS011;18309;43.658;1.312;2023-07-22T02:21:03;5.75;;;2.83;;
31728;SDS011;18309;43.658;1.312;2023-07-22T02:23:29;5.88;;;2.63;;
31728;SDS011;18309;43.658;1.312;2023-07-22T02:25:54;7.55;;;2.67;;
31728;SDS011;18309;43.658;1.312;2023-07-22T02:28:20;7.75;;;3.28;;
31728;SDS011;18309;43.658;1.312;2023-07-22T02:30:51;4.10;;;2.40;;
31728;SDS011;18309;43.658;1.312;2023-07-22T02:33:17;9.57;;;3.17;;
31728;SDS011;18309;43.658;1.312;2023-07-22T02:35:44;3.60;;;2.20;;
31728;SDS011;18309;43.658;1.312;2023-07-22T02:38:10;6.13;;;3.40;;
31728;SDS011;18309;43.658;1.312;2023-07-22T02:40:36;4.85;;;2.63;;
31728;SDS011;18309;43.658;1.312;2023-07-22T02:43:02;8.82;;;3.03;;
31728;SDS011;18309;43.658;1.312;2023-07-22T02:45:28;6.65;;;3.10;;
31728;SDS011;18309;43.658;1.312;2023-07-22T02:47:54;6.13;;;2.75;;
31728;SDS011;18309;43.658;1.312;2023-07-22T02:50:20;8.18;;;2.75;;
31728;SDS011;18309;43.658;1.312;2023-07-22T02:52:46;5.38;;;2.63;;
31728;SDS011;18309;43.658;1.312;2023-07-22T02:55:15;5.15;;;2.50;;
31728;SDS011;18309;43.658;1.312;2023-07-22T02:57:45;10.40;;;3.30;;
31728;SDS011;18309;43.658;1.312;2023-07-22T03:00:12;4.35;;;3.20;;
31728;SDS011;18309;43.658;1.312;2023-07-22T03:05:08;6.78;;;2.53;;
31728;SDS011;18309;43.658;1.312;2023-07-22T03:07:35;6.70;;;2.40;;
31728;SDS011;18309;43.658;1.312;2023-07-22T03:10:07;5.07;;;2.25;;
31728;SDS011;18309;43.658;1.312;2023-07-22T03:12:33;5.70;;;2.65;;
31728;SDS011;18309;43.658;1.312;2023-07-22T03:14:59;4.88;;;2.47;;
31728;SDS011;18309;43.658;1.312;2023-07-22T03:17:25;6.07;;;2.25;;
31728;SDS011;18309;43.658;1.312;2023-07-22T03:19:51;8.38;;;2.10;;
31728;SDS011;18309;43.658;1.312;2023-07-22T03:22:17;5.93;;;2.58;;
31728;SDS011;18309;43.658;1.312;2023-07-22T03:24:43;4.05;;;2.40;;
31728;SDS011;18309;43.658;1.312;2023-07-22T03:27:10;4.85;;;2.55;;
31728;SDS011;18309;43.658;1.312;2023-07-22T03:29:36;4.35;;;2.22;;
31728;SDS011;18309;43.658;1.312;2023-07-22T03:32:04;7.40;;;2.72;;
31728;SDS011;18309;43.658;1.312;2023-07-22T03:34:31;5.63;;;2.65;;
31728;SDS011;18309;43.658;1.312;2023-07-22T03:36:57;6.75;;;2.33;;
31728;SDS011;18309;43.658;1.312;2023-07-22T03:39:23;7.43;;;2.97;;
31728;SDS011;18309;43.658;1.312;2023-07-22T03:41:49;7.95;;;2.55;;
31728;SDS011;18309;43.658;1.312;2023-07-22T03:44:15;7.25;;;2.90;;
31728;SDS011;18309;43.658;1.312;2023-07-22T03:46:41;4.97;;;2.40;;
31728;SDS011;18309;43.658;1.312;2023-07-22T03:49:06;3.67;;;2.25;;
31728;SDS011;18309;43.658;1.312;2023-07-22T06:30:10;12.63;;;2.38;;
31728;SDS011;18309;43.658;1.312;2023-07-22T06:32:36;10.43;;;3.05;;
31728;SDS011;18309;43.658;1.312;2023-07-22T06:35:03;5.80;;;2.67;;
31728;SDS011;18309;43.658;1.312;2023-07-22T06:37:31;8.10;;;2.75;;
31728;SDS011;18309;43.658;1.312;2023-07-22T06:39:56;13.27;;;2.42;;
31728;SDS011;18309;43.658;1.312;2023-07-22T06:42:22;12.32;;;3.05;;
31728;SDS011;18309;43.658;1.312;2023-07-22T06:44:48;9.23;;;2.78;;
31728;SDS011;18309;43.658;1.312;2023-07-22T06:47:14;6.03;;;2.72;;
31728;SDS011;18309;43.658;1.312;2023-07-22T06:49:39;5.95;;;2.95;;
31728;SDS011;18309;43.658;1.312;2023-07-22T06:52:08;7.38;;;2.90;;
31728;SDS011;18309;43.658;1.312;2023-07-22T06:54:34;8.00;;;2.45;;
31728;SDS011;18309;43.658;1.312;2023-07-22T06:57:00;4.82;;;2.45;;
31728;SDS011;18309;43.658;1.312;2023-07-22T06:59:26;10.85;;;2.75;;
31728;SDS011;18309;43.658;1.312;2023-07-22T07:01:52;6.63;;;2.75;;
31728;SDS011;18309;43.658;1.312;2023-07-22T07:04:18;4.20;;;2.70;;
31728;SDS011;18309;43.658;1.312;2023-07-22T07:06:44;5.72;;;2.70;;
31728;SDS011;18309;43.658;1.312;2023-07-22T07:09:11;4.18;;;2.88;;
31728;SDS011;18309;43.658;1.312;2023-07-22T07:11:37;4.90;;;2.38;;
31728;SDS011;18309;43.658;1.312;2023-07-22T07:14:03;4.88;;;2.78;;
31728;SDS011;18309;43.658;1.312;2023-07-22T07:16:29;13.52;;;2.63;;
31728;SDS011;18309;43.658;1.312;2023-07-22T07:18:59;8.95;;;2.65;;
31728;SDS011;18309;43.658;1.312;2023-07-22T07:21:25;3.85;;;2.47;;
31728;SDS011;18309;43.658;1.312;2023-07-22T07:23:52;4.75;;;3.05;;
31728;SDS011;18309;43.658;1.312;2023-07-22T07:26:19;9.27;;;2.72;;
31728;SDS011;18309;43.658;1.312;2023-07-22T07:28:46;5.43;;;2.58;;
31728;SDS011;18309;43.658;1.312;2023-07-22T07:31:12;10.82;;;2.45;;
31728;SDS011;18309;43.658;1.312;2023-07-22T07:33:38;8.40;;;3.05;;
31728;SDS011;18309;43.658;1.312;2023-07-22T07:36:04;5.75;;;2.72;;
31728;SDS011;18309;43.658;1.312;2023-07-22T07:38:30;5.40;;;2.47;;
31728;SDS011;18309;43.658;1.312;2023-07-22T07:40:56;4.90;;;2.80;;
31728;SDS011;18309;43.658;1.312;2023-07-22T07:43:28;7.72;;;2.55;;
31728;SDS011;18309;43.658;1.312;2023-07-22T07:46:13;3.22;;;2.03;;
31728;SDS011;18309;43.658;1.312;2023-07-22T07:49:04;9.57;;;2.60;;
31728;SDS011;18309;43.658;1.312;2023-07-22T07:51:29;5.53;;;2.38;;
31728;SDS011;18309;43.658;1.312;2023-07-22T07:53:56;5.30;;;2.50;;
31728;SDS011;18309;43.658;1.312;2023-07-22T07:56:23;9.13;;;2.65;;
31728;SDS011;18309;43.658;1.312;2023-07-22T07:58:49;10.13;;;2.63;;
31728;SDS011;18309;43.658;1.312;2023-07-22T08:01:19;6.90;;;2.30;;
31728;SDS011;18309;43.658;1.312;2023-07-22T08:03:46;6.45;;;2.83;;
31728;SDS011;18309;43.658;1.312;2023-07-22T08:06:11;7.45;;;2.63;;
31728;SDS011;18309;43.658;1.312;2023-07-22T08:08:38;4.68;;;2.38;;
31728;SDS011;18309;43.658;1.312;2023-07-22T08:11:11;3.97;;;2.50;;
31728;SDS011;18309;43.658;1.312;2023-07-22T08:13:41;7.50;;;2.95;;
31728;SDS011;18309;43.658;1.312;2023-07-22T08:16:09;4.82;;;2.55;;
31728;SDS011;18309;43.658;1.312;2023-07-22T08:18:36;6.82;;;2.50;;
31728;SDS011;18309;43.658;1.312;2023-07-22T08:21:02;5.38;;;2.22;;
31728;SDS011;18309;43.658;1.312;2023-07-22T08:23:29;8.52;;;2.35;;
31728;SDS011;18309;43.658;1.312;2023-07-22T08:25:57;5.28;;;2.60;;
31728;SDS011;18309;43.658;1.312;2023-07-22T08:28:23;4.93;;;2.45;;
31728;SDS011;18309;43.658;1.312;2023-07-22T08:30:48;5.22;;;1.88;;
31728;SDS011;18309;43.658;1.312;2023-07-22T08:33:14;14.23;;;3.22;;
31728;SDS011;18309;43.658;1.312;2023-07-22T08:35:41;8.13;;;2.65;;
31728;SDS011;18309;43.658;1.312;2023-07-22T08:38:07;7.88;;;2.05;;
31728;SDS011;18309;43.658;1.312;2023-07-22T08:40:37;3.53;;;2.08;;
31728;SDS011;18309;43.658;1.312;2023-07-22T08:43:04;5.18;;;2.22;;
31728;SDS011;18309;43.658;1.312;2023-07-22T08:45:32;5.80;;;2.40;;
31728;SDS011;18309;43.658;1.312;2023-07-22T08:48:02;6.70;;;2.28;;
31728;SDS011;18309;43.658;1.312;2023-07-22T08:50:33;6.55;;;2.15;;
31728;SDS011;18309;43.658;1.312;2023-07-22T08:53:10;5.35;;;2.30;;
31728;SDS011;18309;43.658;1.312;2023-07-22T08:55:37;9.32;;;2.80;;
31728;SDS011;18309;43.658;1.312;2023-07-22T08:58:05;10.02;;;2.55;;
31728;SDS011;18309;43.658;1.312;2023-07-22T09:00:35;5.40;;;2.60;;
31728;SDS011;18309;43.658;1.312;2023-07-22T09:03:02;7.35;;;2.70;;
31728;SDS011;18309;43.658;1.312;2023-07-22T09:05:28;4.60;;;1.80;;
31728;SDS011;18309;43.658;1.312;2023-07-22T09:07:56;6.22;;;2.25;;
31728;SDS011;18309;43.658;1.312;2023-07-22T09:10:23;7.50;;;2.17;;
31728;SDS011;18309;43.658;1.312;2023-07-22T09:12:52;9.15;;;2.70;;
31728;SDS011;18309;43.658;1.312;2023-07-22T09:15:18;6.75;;;2.33;;
31728;SDS011;18309;43.658;1.312;2023-07-22T09:17:45;4.90;;;2.25;;
31728;SDS011;18309;43.658;1.312;2023-07-22T09:20:12;8.23;;;2.70;;
31728;SDS011;18309;43.658;1.312;2023-07-22T09:22:42;6.05;;;2.40;;
31728;SDS011;18309;43.658;1.312;2023-07-22T09:27:40;4.82;;;2.33;;
31728;SDS011;18309;43.658;1.312;2023-07-22T09:30:19;3.25;;;2.20;;
31728;SDS011;18309;43.658;1.312;2023-07-22T09:32:48;7.07;;;2.58;;
31728;SDS011;18309;43.658;1.312;2023-07-22T09:35:15;7.15;;;2.30;;
31728;SDS011;18309;43.658;1.312;2023-07-22T09:37:40;9.55;;;2.90;;
31728;SDS011;18309;43.658;1.312;2023-07-22T09:42:50;3.90;;;2.00;;
31728;SDS011;18309;43.658;1.312;2023-07-22T09:45:17;18.48;;;2.70;;
31728;SDS011;18309;43.658;1.312;2023-07-22T09:47:46;9.27;;;2.38;;
31728;SDS011;18309;43.658;1.312;2023-07-22T09:50:17;5.35;;;2.60;;
31728;SDS011;18309;43.658;1.312;2023-07-22T09:52:44;7.80;;;2.70;;
31728;SDS011;18309;43.658;1.312;2023-07-22T09:55:12;4.15;;;2.40;;
31728;SDS011;18309;43.658;1.312;2023-07-22T09:57:43;13.07;;;2.83;;
31728;SDS011;18309;43.658;1.312;2023-07-22T10:00:11;7.20;;;2.08;;
31728;SDS011;18309;43.658;1.312;2023-07-22T10:02:40;5.97;;;1.95;;
31728;SDS011;18309;43.658;1.312;2023-07-22T10:05:08;8.65;;;2.05;;
31728;SDS011;18309;43.658;1.312;2023-07-22T10:07:51;8.10;;;2.30;;
31728;SDS011;18309;43.658;1.312;2023-07-22T10:10:20;8.13;;;2.60;;
31728;SDS011;18309;43.658;1.312;2023-07-22T10:12:50;7.78;;;2.47;;
31728;SDS011;18309;43.658;1.312;2023-07-22T10:15:18;4.47;;;2.10;;
31728;SDS011;18309;43.658;1.312;2023-07-22T10:17:44;11.13;;;2.22;;
31728;SDS011;18309;43.658;1.312;2023-07-22T10:20:11;8.02;;;1.85;;
31728;SDS011;18309;43.658;1.312;2023-07-22T10:22:42;3.53;;;1.60;;
31728;SDS011;18309;43.658;1.312;2023-07-22T10:25:10;7.68;;;2.08;;
31728;SDS011;18309;43.658;1.312;2023-07-22T10:27:37;5.78;;;2.00;;
31728;SDS011;18309;43.658;1.312;2023-07-22T10:30:05;4.03;;;2.00;;
31728;SDS011;18309;43.658;1.312;2023-07-22T10:32:35;4.22;;;1.75;;
31728;SDS011;18309;43.658;1.312;2023-07-22T10:35:09;6.40;;;2.33;;
31728;SDS011;18309;43.658;1.312;2023-07-22T10:37:49;6.50;;;2.03;;
31728;SDS011;18309;43.658;1.312;2023-07-22T10:40:27;7.47;;;2.00;;
31728;SDS011;18309;43.658;1.312;2023-07-22T10:43:03;10.15;;;2.22;;
31728;SDS011;18309;43.658;1.312;2023-07-22T10:45:30;5.97;;;1.92;;
31728;SDS011;18309;43.658;1.312;2023-07-22T10:48:10;5.95;;;2.53;;
31728;SDS011;18309;43.658;1.312;2023-07-22T10:53:37;3.30;;;1.40;;
31728;SDS011;18309;43.658;1.312;2023-07-22T11:04:05;6.50;;;2.20;;
31728;SDS011;18309;43.658;1.312;2023-07-22T11:11:56;3.25;;;2.05;;
31728;SDS011;18309;43.658;1.312;2023-07-22T11:16:53;8.38;;;2.45;;
31728;SDS011;18309;43.658;1.312;2023-07-22T11:19:22;7.82;;;2.22;;
31728;SDS011;18309;43.658;1.312;2023-07-22T11:21:51;11.93;;;2.70;;
31728;SDS011;18309;43.658;1.312;2023-07-22T11:24:19;5.75;;;2.33;;
31728;SDS011;18309;43.658;1.312;2023-07-22T11:26:46;4.00;;;2.20;;
31728;SDS011;18309;43.658;1.312;2023-07-22T11:29:14;10.80;;;2.65;;
31728;SDS011;18309;43.658;1.312;2023-07-22T11:31:41;3.10;;;2.17;;
31728;SDS011;18309;43.658;1.312;2023-07-22T11:34:12;3.92;;;2.20;;
31728;SDS011;18309;43.658;1.312;2023-07-22T11:36:39;4.97;;;2.67;;
31728;SDS011;18309;43.658;1.312;2023-07-22T11:39:09;7.47;;;3.00;;
31728;SDS011;18309;43.658;1.312;2023-07-22T11:41:39;6.28;;;3.53;;
31728;SDS011;18309;43.658;1.312;2023-07-22T11:44:09;5.72;;;1.98;;
31728;SDS011;18309;43.658;1.312;2023-07-22T11:49:41;19.83;;;4.90;;
31728;SDS011;18309;43.658;1.312;2023-07-22T11:52:15;22.90;;;4.68;;
31728;SDS011;18309;43.658;1.312;2023-07-22T11:54:45;10.13;;;3.13;;
31728;SDS011;18309;43.658;1.312;2023-07-22T11:57:21;4.57;;;2.53;;
31728;SDS011;18309;43.658;1.312;2023-07-22T11:59:51;8.52;;;2.67;;
31728;SDS011;18309;43.658;1.312;2023-07-22T12:02:22;8.00;;;2.67;;
31728;SDS011;18309;43.658;1.312;2023-07-22T12:05:02;5.90;;;2.22;;
31728;SDS011;18309;43.658;1.312;2023-07-22T12:07:31;9.15;;;2.47;;
31728;SDS011;18309;43.658;1.312;2023-07-22T12:10:01;5.97;;;2.60;;
31728;SDS011;18309;43.658;1.312;2023-07-22T12:12:41;5.80;;;2.25;;
31728;SDS011;18309;43.658;1.312;2023-07-22T12:15:10;7.25;;;3.13;;
31728;SDS011;18309;43.658;1.312;2023-07-22T12:17:47;8.07;;;2.60;;
31728;SDS011;18309;43.658;1.312;2023-07-22T12:20:24;8.80;;;2.45;;
31728;SDS011;18309;43.658;1.312;2023-07-22T12:22:51;5.70;;;2.38;;
31728;SDS011;18309;43.658;1.312;2023-07-22T12:25:17;5.30;;;2.55;;
31728;SDS011;18309;43.658;1.312;2023-07-22T12:27:43;4.60;;;2.50;;
31728;SDS011;18309;43.658;1.312;2023-07-22T12:30:10;4.43;;;2.33;;
31728;SDS011;18309;43.658;1.312;2023-07-22T12:32:36;7.07;;;2.53;;
31728;SDS011;18309;43.658;1.312;2023-07-22T12:35:02;7.47;;;3.15;;
31728;SDS011;18309;43.658;1.312;2023-07-22T12:37:28;3.42;;;2.20;;
31728;SDS011;18309;43.658;1.312;2023-07-22T12:39:55;6.72;;;2.72;;
31728;SDS011;18309;43.658;1.312;2023-07-22T12:42:21;9.32;;;2.35;;
31728;SDS011;18309;43.658;1.312;2023-07-22T12:44:47;4.82;;;2.40;;
31728;SDS011;18309;43.658;1.312;2023-07-22T12:47:12;4.47;;;2.03;;
31728;SDS011;18309;43.658;1.312;2023-07-22T12:49:38;4.63;;;2.40;;
31728;SDS011;18309;43.658;1.312;2023-07-22T12:52:04;5.45;;;2.40;;
31728;SDS011;18309;43.658;1.312;2023-07-22T12:54:33;7.22;;;2.10;;
31728;SDS011;18309;43.658;1.312;2023-07-22T12:57:03;3.60;;;1.92;;
31728;SDS011;18309;43.658;1.312;2023-07-22T12:59:30;4.53;;;2.20;;
31728;SDS011;18309;43.658;1.312;2023-07-22T13:01:56;5.45;;;2.22;;
31728;SDS011;18309;43.658;1.312;2023-07-22T13:04:23;4.43;;;2.40;;
31728;SDS011;18309;43.658;1.312;2023-07-22T13:06:50;5.03;;;2.67;;
31728;SDS011;18309;43.658;1.312;2023-07-22T13:09:19;5.72;;;2.92;;
31728;SDS011;18309;43.658;1.312;2023-07-22T13:11:45;5.10;;;2.08;;
31728;SDS011;18309;43.658;1.312;2023-07-22T13:14:11;5.35;;;2.20;;
31728;SDS011;18309;43.658;1.312;2023-07-22T13:16:37;3.67;;;2.10;;
31728;SDS011;18309;43.658;1.312;2023-07-22T13:19:03;4.95;;;2.05;;
31728;SDS011;18309;43.658;1.312;2023-07-22T13:21:29;3.67;;;1.92;;
31728;SDS011;18309;43.658;1.312;2023-07-22T13:23:55;4.15;;;2.08;;
31728;SDS011;18309;43.658;1.312;2023-07-22T13:26:22;5.15;;;2.20;;
31728;SDS011;18309;43.658;1.312;2023-07-22T13:28:47;4.80;;;2.45;;
31728;SDS011;18309;43.658;1.312;2023-07-22T13:31:13;4.70;;;2.38;;
31728;SDS011;18309;43.658;1.312;2023-07-22T13:33:39;5.22;;;2.47;;
31728;SDS011;18309;43.658;1.312;2023-07-22T13:36:05;6.10;;;2.63;;
31728;SDS011;18309;43.658;1.312;2023-07-22T13:38:31;7.07;;;2.28;;
31728;SDS011;18309;43.658;1.312;2023-07-22T13:40:57;4.45;;;2.30;;
31728;SDS011;18309;43.658;1.312;2023-07-22T13:43:22;6.00;;;2.13;;
31728;SDS011;18309;43.658;1.312;2023-07-22T13:45:48;6.35;;;2.65;;
31728;SDS011;18309;43.658;1.312;2023-07-22T13:48:14;3.63;;;2.35;;
31728;SDS011;18309;43.658;1.312;2023-07-22T13:50:40;6.38;;;2.05;;
31728;SDS011;18309;43.658;1.312;2023-07-22T13:53:07;6.43;;;2.10;;
31728;SDS011;18309;43.658;1.312;2023-07-22T13:55:32;5.65;;;2.33;;
31728;SDS011;18309;43.658;1.312;2023-07-22T13:57:58;6.28;;;2.70;;
31728;SDS011;18309;43.658;1.312;2023-07-22T14:00:24;5.15;;;2.35;;
31728;SDS011;18309;43.658;1.312;2023-07-22T14:02:49;7.50;;;2.45;;
31728;SDS011;18309;43.658;1.312;2023-07-22T14:05:15;3.47;;;1.98;;
31728;SDS011;18309;43.658;1.312;2023-07-22T14:07:41;18.27;;;1.92;;
31728;SDS011;18309;43.658;1.312;2023-07-22T14:10:06;3.88;;;2.15;;
31728;SDS011;18309;43.658;1.312;2023-07-22T14:12:34;4.05;;;2.40;;
31728;SDS011;18309;43.658;1.312;2023-07-22T14:15:00;12.27;;;2.10;;
31728;SDS011;18309;43.658;1.312;2023-07-22T14:17:25;5.43;;;2.13;;
31728;SDS011;18309;43.658;1.312;2023-07-22T14:19:51;6.53;;;1.95;;
31728;SDS011;18309;43.658;1.312;2023-07-22T14:22:17;3.53;;;1.83;;
31728;SDS011;18309;43.658;1.312;2023-07-22T14:24:43;5.50;;;2.28;;
31728;SDS011;18309;43.658;1.312;2023-07-22T14:27:08;4.78;;;2.22;;
31728;SDS011;18309;43.658;1.312;2023-07-22T14:29:34;4.85;;;1.80;;
31728;SDS011;18309;43.658;1.312;2023-07-22T14:31:59;2.35;;;1.85;;
31728;SDS011;18309;43.658;1.312;2023-07-22T14:34:25;6.13;;;2.15;;
31728;SDS011;18309;43.658;1.312;2023-07-22T14:36:51;5.13;;;2.22;;
31728;SDS011;18309;43.658;1.312;2023-07-22T14:39:17;7.25;;;1.80;;
31728;SDS011;18309;43.658;1.312;2023-07-22T14:41:42;5.32;;;2.65;;
31728;SDS011;18309;43.658;1.312;2023-07-22T14:44:12;8.47;;;2.23;;
31728;SDS011;18309;43.658;1.312;2023-07-22T14:46:37;8.57;;;2.35;;
31728;SDS011;18309;43.658;1.312;2023-07-22T14:49:03;6.10;;;1.80;;
31728;SDS011;18309;43.658;1.312;2023-07-22T14:51:30;7.07;;;2.47;;
31728;SDS011;18309;43.658;1.312;2023-07-22T14:53:55;2.75;;;1.92;;
31728;SDS011;18309;43.658;1.312;2023-07-22T14:56:21;5.43;;;2.33;;
31728;SDS011;18309;43.658;1.312;2023-07-22T14:58:47;5.32;;;2.15;;
31728;SDS011;18309;43.658;1.312;2023-07-22T15:01:14;2.85;;;1.63;;
31728;SDS011;18309;43.658;1.312;2023-07-22T15:03:40;5.00;;;2.00;;
31728;SDS011;18309;43.658;1.312;2023-07-22T15:06:05;5.40;;;1.70;;
31728;SDS011;18309;43.658;1.312;2023-07-22T15:08:31;6.93;;;1.83;;
31728;SDS011;18309;43.658;1.312;2023-07-22T15:10:57;2.63;;;1.80;;
31728;SDS011;18309;43.658;1.312;2023-07-22T15:13:23;2.28;;;1.63;;
31728;SDS011;18309;43.658;1.312;2023-07-22T15:15:48;6.88;;;1.73;;
31728;SDS011;18309;43.658;1.312;2023-07-22T15:18:14;3.25;;;1.58;;
31728;SDS011;18309;43.658;1.312;2023-07-22T15:20:40;3.78;;;2.05;;
31728;SDS011;18309;43.658;1.312;2023-07-22T15:23:05;3.72;;;1.50;;
31728;SDS011;18309;43.658;1.312;2023-07-22T15:25:32;3.00;;;1.90;;
31728;SDS011;18309;43.658;1.312;2023-07-22T15:27:58;2.92;;;1.50;;
31728;SDS011;18309;43.658;1.312;2023-07-22T15:30:23;3.97;;;1.50;;
31728;SDS011;18309;43.658;1.312;2023-07-22T15:32:49;3.80;;;1.73;;
31728;SDS011;18309;43.658;1.312;2023-07-22T15:35:16;4.22;;;2.00;;
31728;SDS011;18309;43.658;1.312;2023-07-22T15:37:42;7.43;;;2.40;;
31728;SDS011;18309;43.658;1.312;2023-07-22T15:40:07;2.97;;;1.67;;
31728;SDS011;18309;43.658;1.312;2023-07-22T15:42:33;3.90;;;1.63;;
31728;SDS011;18309;43.658;1.312;2023-07-22T15:44:59;4.40;;;2.45;;
31728;SDS011;18309;43.658;1.312;2023-07-22T15:47:26;7.10;;;1.98;;
31728;SDS011;18309;43.658;1.312;2023-07-22T15:49:52;3.30;;;2.10;;
31728;SDS011;18309;43.658;1.312;2023-07-22T15:52:18;3.22;;;1.80;;
31728;SDS011;18309;43.658;1.312;2023-07-22T15:54:44;2.63;;;1.65;;
31728;SDS011;18309;43.658;1.312;2023-07-22T15:57:09;5.22;;;2.00;;
31728;SDS011;18309;43.658;1.312;2023-07-22T15:59:35;4.32;;;1.60;;
31728;SDS011;18309;43.658;1.312;2023-07-22T16:02:01;3.92;;;1.90;;
31728;SDS011;18309;43.658;1.312;2023-07-22T16:04:27;5.97;;;2.10;;
31728;SDS011;18309;43.658;1.312;2023-07-22T16:06:53;3.90;;;2.03;;
31728;SDS011;18309;43.658;1.312;2023-07-22T16:09:18;5.13;;;2.40;;
31728;SDS011;18309;43.658;1.312;2023-07-22T16:11:44;4.13;;;1.50;;
31728;SDS011;18309;43.658;1.312;2023-07-22T16:14:10;4.70;;;1.85;;
31728;SDS011;18309;43.658;1.312;2023-07-22T16:16:36;3.75;;;2.15;;
31728;SDS011;18309;43.658;1.312;2023-07-22T16:19:02;4.43;;;2.30;;
31728;SDS011;18309;43.658;1.312;2023-07-22T16:21:28;4.47;;;1.65;;
31728;SDS011;18309;43.658;1.312;2023-07-22T16:23:53;4.13;;;1.98;;
31728;SDS011;18309;43.658;1.312;2023-07-22T16:26:19;5.50;;;2.30;;
31728;SDS011;18309;43.658;1.312;2023-07-22T16:28:44;4.65;;;2.30;;
31728;SDS011;18309;43.658;1.312;2023-07-22T16:31:10;4.15;;;1.92;;
31728;SDS011;18309;43.658;1.312;2023-07-22T16:33:36;3.92;;;1.80;;
31728;SDS011;18309;43.658;1.312;2023-07-22T16:36:01;5.03;;;2.05;;
31728;SDS011;18309;43.658;1.312;2023-07-22T16:38:27;3.35;;;2.05;;
31728;SDS011;18309;43.658;1.312;2023-07-22T16:40:53;4.57;;;1.98;;
31728;SDS011;18309;43.658;1.312;2023-07-22T16:43:18;3.95;;;2.00;;
31728;SDS011;18309;43.658;1.312;2023-07-22T16:45:44;3.13;;;1.70;;
31728;SDS011;18309;43.658;1.312;2023-07-22T16:48:10;8.70;;;2.28;;
31728;SDS011;18309;43.658;1.312;2023-07-22T16:50:35;6.15;;;1.95;;
31728;SDS011;18309;43.658;1.312;2023-07-22T16:53:01;12.20;;;2.40;;
31728;SDS011;18309;43.658;1.312;2023-07-22T16:55:28;3.35;;;1.80;;
31728;SDS011;18309;43.658;1.312;2023-07-22T16:57:54;6.90;;;2.08;;
31728;SDS011;18309;43.658;1.312;2023-07-22T17:00:20;2.78;;;2.00;;
31728;SDS011;18309;43.658;1.312;2023-07-22T17:02:46;5.63;;;1.60;;
31728;SDS011;18309;43.658;1.312;2023-07-22T17:05:12;3.25;;;1.85;;
31728;SDS011;18309;43.658;1.312;2023-07-22T17:07:38;7.15;;;2.08;;
31728;SDS011;18309;43.658;1.312;2023-07-22T17:10:05;4.03;;;1.88;;
31728;SDS011;18309;43.658;1.312;2023-07-22T17:12:31;4.80;;;2.00;;
31728;SDS011;18309;43.658;1.312;2023-07-22T17:14:57;3.50;;;1.95;;
31728;SDS011;18309;43.658;1.312;2023-07-22T17:17:22;4.57;;;2.17;;
31728;SDS011;18309;43.658;1.312;2023-07-22T17:19:48;2.42;;;1.50;;
31728;SDS011;18309;43.658;1.312;2023-07-22T17:22:14;4.40;;;2.78;;
31728;SDS011;18309;43.658;1.312;2023-07-22T17:24:39;6.18;;;2.08;;
31728;SDS011;18309;43.658;1.312;2023-07-22T17:27:05;3.83;;;1.88;;
31728;SDS011;18309;43.658;1.312;2023-07-22T17:29:31;5.97;;;2.00;;
31728;SDS011;18309;43.658;1.312;2023-07-22T17:31:57;3.80;;;1.83;;
31728;SDS011;18309;43.658;1.312;2023-07-22T17:34:22;3.15;;;2.03;;
31728;SDS011;18309;43.658;1.312;2023-07-22T17:36:48;7.95;;;2.13;;
31728;SDS011;18309;43.658;1.312;2023-07-22T17:39:14;5.85;;;1.90;;
31728;SDS011;18309;43.658;1.312;2023-07-22T17:41:39;3.67;;;2.10;;
31728;SDS011;18309;43.658;1.312;2023-07-22T17:44:06;4.65;;;2.00;;
31728;SDS011;18309;43.658;1.312;2023-07-22T17:46:32;3.50;;;1.90;;
31728;SDS011;18309;43.658;1.312;2023-07-22T17:48:58;5.68;;;1.80;;
31728;SDS011;18309;43.658;1.312;2023-07-22T17:51:23;7.63;;;2.20;;
31728;SDS011;18309;43.658;1.312;2023-07-22T17:53:49;4.63;;;1.92;;